sensor_id;sensor_type;location;lat;lon;timestamp;P1;durP1;ratioP1;P2;durP2;ratioP2
36629;SDS011;36256;42.154;23.002;2022-10-29T00:00:52;13.20;;;5.30;;
36629;SDS011;36256;42.154;23.002;2022-10-29T00:03:20;7.50;;;5.47;;
36629;SDS011;36256;42.154;23.002;2022-10-29T00:05:54;11.75;;;6.35;;
36629;SDS011;36256;42.154;23.002;2022-10-29T00:08:22;9.27;;;6.07;;
36629;SDS011;36256;42.154;23.002;2022-10-29T00:10:49;10.85;;;6.00;;
36629;SDS011;36256;42.154;23.002;2022-10-29T00:13:15;11.10;;;6.47;;
36629;SDS011;36256;42.154;23.002;2022-10-29T00:15:42;11.87;;;6.77;;
36629;SDS011;36256;42.154;23.002;2022-10-29T00:18:08;9.13;;;6.97;;
36629;SDS011;36256;42.154;23.002;2022-10-29T00:20:35;11.10;;;6.07;;
36629;SDS011;36256;42.154;23.002;2022-10-29T00:23:01;11.47;;;6.27;;
36629;SDS011;36256;42.154;23.002;2022-10-29T00:25:28;8.80;;;5.70;;
36629;SDS011;36256;42.154;23.002;2022-10-29T00:27:55;13.00;;;5.63;;
36629;SDS011;36256;42.154;23.002;2022-10-29T00:30:21;8.77;;;6.22;;
36629;SDS011;36256;42.154;23.002;2022-10-29T00:32:48;11.23;;;5.90;;
36629;SDS011;36256;42.154;23.002;2022-10-29T00:35:14;7.53;;;5.10;;
36629;SDS011;36256;42.154;23.002;2022-10-29T00:37:41;7.80;;;4.63;;
36629;SDS011;36256;42.154;23.002;2022-10-29T00:40:08;11.10;;;5.00;;
36629;SDS011;36256;42.154;23.002;2022-10-29T00:42:35;9.30;;;5.10;;
36629;SDS011;36256;42.154;23.002;2022-10-29T00:45:01;9.70;;;3.77;;
36629;SDS011;36256;42.154;23.002;2022-10-29T00:47:28;7.00;;;5.32;;
36629;SDS011;36256;42.154;23.002;2022-10-29T00:50:09;10.70;;;7.18;;
36629;SDS011;36256;42.154;23.002;2022-10-29T00:52:40;7.93;;;6.50;;
36629;SDS011;36256;42.154;23.002;2022-10-29T00:55:12;12.40;;;6.10;;
36629;SDS011;36256;42.154;23.002;2022-10-29T00:57:42;10.93;;;6.28;;
36629;SDS011;36256;42.154;23.002;2022-10-29T01:00:14;11.65;;;6.55;;
36629;SDS011;36256;42.154;23.002;2022-10-29T01:02:42;10.05;;;6.28;;
36629;SDS011;36256;42.154;23.002;2022-10-29T01:05:10;12.65;;;6.63;;
36629;SDS011;36256;42.154;23.002;2022-10-29T01:07:40;10.80;;;5.63;;
36629;SDS011;36256;42.154;23.002;2022-10-29T01:10:06;14.60;;;6.40;;
36629;SDS011;36256;42.154;23.002;2022-10-29T01:20:56;11.05;;;6.47;;
36629;SDS011;36256;42.154;23.002;2022-10-29T01:28:57;9.45;;;5.43;;
36629;SDS011;36256;42.154;23.002;2022-10-29T01:31:47;10.75;;;6.80;;
36629;SDS011;36256;42.154;23.002;2022-10-29T01:39:35;7.85;;;4.97;;
36629;SDS011;36256;42.154;23.002;2022-10-29T01:48:00;6.60;;;4.70;;
36629;SDS011;36256;42.154;23.002;2022-10-29T01:50:32;9.02;;;4.80;;
36629;SDS011;36256;42.154;23.002;2022-10-29T01:53:01;9.60;;;4.82;;
36629;SDS011;36256;42.154;23.002;2022-10-29T01:55:30;7.10;;;4.45;;
36629;SDS011;36256;42.154;23.002;2022-10-29T01:58:01;9.23;;;4.85;;
36629;SDS011;36256;42.154;23.002;2022-10-29T02:00:37;7.38;;;4.75;;
36629;SDS011;36256;42.154;23.002;2022-10-29T02:03:12;7.07;;;4.82;;
36629;SDS011;36256;42.154;23.002;2022-10-29T02:14:26;7.10;;;4.50;;
36629;SDS011;36256;42.154;23.002;2022-10-29T02:16:58;8.75;;;4.93;;
36629;SDS011;36256;42.154;23.002;2022-10-29T02:19:32;6.32;;;4.80;;
36629;SDS011;36256;42.154;23.002;2022-10-29T02:22:01;7.97;;;4.90;;
36629;SDS011;36256;42.154;23.002;2022-10-29T02:24:27;6.55;;;4.50;;
36629;SDS011;36256;42.154;23.002;2022-10-29T02:26:54;8.83;;;4.90;;
36629;SDS011;36256;42.154;23.002;2022-10-29T02:29:20;7.87;;;4.50;;
36629;SDS011;36256;42.154;23.002;2022-10-29T02:31:47;7.97;;;5.07;;
36629;SDS011;36256;42.154;23.002;2022-10-29T02:34:13;12.07;;;5.20;;
36629;SDS011;36256;42.154;23.002;2022-10-29T02:36:40;5.97;;;4.50;;
36629;SDS011;36256;42.154;23.002;2022-10-29T02:39:06;8.33;;;5.03;;
36629;SDS011;36256;42.154;23.002;2022-10-29T02:41:33;7.23;;;4.77;;
36629;SDS011;36256;42.154;23.002;2022-10-29T02:43:59;10.95;;;5.25;;
36629;SDS011;36256;42.154;23.002;2022-10-29T02:46:26;9.40;;;4.85;;
36629;SDS011;36256;42.154;23.002;2022-10-29T02:48:52;9.03;;;3.83;;
36629;SDS011;36256;42.154;23.002;2022-10-29T02:51:19;6.87;;;4.60;;
36629;SDS011;36256;42.154;23.002;2022-10-29T02:53:45;7.43;;;4.20;;
36629;SDS011;36256;42.154;23.002;2022-10-29T02:56:12;6.20;;;4.53;;
36629;SDS011;36256;42.154;23.002;2022-10-29T02:58:39;8.40;;;4.72;;
36629;SDS011;36256;42.154;23.002;2022-10-29T03:01:05;7.33;;;5.10;;
36629;SDS011;36256;42.154;23.002;2022-10-29T03:03:32;6.40;;;4.93;;
36629;SDS011;36256;42.154;23.002;2022-10-29T03:05:58;6.90;;;3.92;;
36629;SDS011;36256;42.154;23.002;2022-10-29T03:08:25;10.17;;;5.17;;
36629;SDS011;36256;42.154;23.002;2022-10-29T03:10:53;4.70;;;3.20;;
36629;SDS011;36256;42.154;23.002;2022-10-29T03:13:20;10.90;;;4.65;;
36629;SDS011;36256;42.154;23.002;2022-10-29T03:15:46;10.90;;;4.90;;
36629;SDS011;36256;42.154;23.002;2022-10-29T03:18:13;9.05;;;4.97;;
36629;SDS011;36256;42.154;23.002;2022-10-29T03:20:39;7.90;;;3.73;;
36629;SDS011;36256;42.154;23.002;2022-10-29T03:23:08;10.35;;;5.03;;
36629;SDS011;36256;42.154;23.002;2022-10-29T03:25:34;7.67;;;4.27;;
36629;SDS011;36256;42.154;23.002;2022-10-29T03:28:01;5.85;;;3.53;;
36629;SDS011;36256;42.154;23.002;2022-10-29T03:30:27;7.83;;;4.90;;
36629;SDS011;36256;42.154;23.002;2022-10-29T03:32:54;9.82;;;4.55;;
36629;SDS011;36256;42.154;23.002;2022-10-29T03:35:21;7.88;;;4.28;;
36629;SDS011;36256;42.154;23.002;2022-10-29T03:37:48;7.32;;;4.28;;
36629;SDS011;36256;42.154;23.002;2022-10-29T03:40:16;7.53;;;5.13;;
36629;SDS011;36256;42.154;23.002;2022-10-29T03:45:10;9.68;;;4.43;;
36629;SDS011;36256;42.154;23.002;2022-10-29T03:47:37;5.70;;;4.03;;
36629;SDS011;36256;42.154;23.002;2022-10-29T03:50:03;6.43;;;4.22;;
36629;SDS011;36256;42.154;23.002;2022-10-29T03:52:30;10.52;;;4.45;;
36629;SDS011;36256;42.154;23.002;2022-10-29T03:54:56;8.73;;;4.50;;
36629;SDS011;36256;42.154;23.002;2022-10-29T03:57:23;4.63;;;3.53;;
36629;SDS011;36256;42.154;23.002;2022-10-29T03:59:49;6.53;;;4.63;;
36629;SDS011;36256;42.154;23.002;2022-10-29T04:02:18;6.93;;;4.50;;
36629;SDS011;36256;42.154;23.002;2022-10-29T04:04:45;9.50;;;4.93;;
36629;SDS011;36256;42.154;23.002;2022-10-29T04:07:12;10.70;;;5.27;;
36629;SDS011;36256;42.154;23.002;2022-10-29T04:09:39;10.20;;;6.05;;
36629;SDS011;36256;42.154;23.002;2022-10-29T04:12:05;14.93;;;6.28;;
36629;SDS011;36256;42.154;23.002;2022-10-29T04:16:59;6.15;;;4.60;;
36629;SDS011;36256;42.154;23.002;2022-10-29T04:19:26;5.97;;;4.20;;
36629;SDS011;36256;42.154;23.002;2022-10-29T04:21:52;7.63;;;4.83;;
36629;SDS011;36256;42.154;23.002;2022-10-29T04:24:39;9.20;;;5.20;;
36629;SDS011;36256;42.154;23.002;2022-10-29T04:27:25;8.25;;;5.32;;
36629;SDS011;36256;42.154;23.002;2022-10-29T04:30:13;7.75;;;4.60;;
36629;SDS011;36256;42.154;23.002;2022-10-29T04:32:40;8.30;;;5.20;;
36629;SDS011;36256;42.154;23.002;2022-10-29T04:35:06;6.05;;;4.15;;
36629;SDS011;36256;42.154;23.002;2022-10-29T04:37:33;8.07;;;4.70;;
36629;SDS011;36256;42.154;23.002;2022-10-29T04:40:00;7.70;;;4.57;;
36629;SDS011;36256;42.154;23.002;2022-10-29T04:42:26;7.05;;;5.45;;
36629;SDS011;36256;42.154;23.002;2022-10-29T04:44:53;8.30;;;5.28;;
36629;SDS011;36256;42.154;23.002;2022-10-29T04:47:19;7.03;;;4.65;;
36629;SDS011;36256;42.154;23.002;2022-10-29T04:49:46;5.63;;;4.30;;
36629;SDS011;36256;42.154;23.002;2022-10-29T04:52:12;12.27;;;5.43;;
36629;SDS011;36256;42.154;23.002;2022-10-29T04:54:39;23.33;;;6.13;;
36629;SDS011;36256;42.154;23.002;2022-10-29T04:57:06;13.57;;;5.90;;
36629;SDS011;36256;42.154;23.002;2022-10-29T04:59:32;7.07;;;4.93;;
36629;SDS011;36256;42.154;23.002;2022-10-29T05:01:59;7.80;;;4.43;;
36629;SDS011;36256;42.154;23.002;2022-10-29T05:04:25;8.65;;;5.13;;
36629;SDS011;36256;42.154;23.002;2022-10-29T05:06:54;9.15;;;5.60;;
36629;SDS011;36256;42.154;23.002;2022-10-29T05:09:21;9.95;;;5.90;;
36629;SDS011;36256;42.154;23.002;2022-10-29T05:11:47;11.50;;;6.18;;
36629;SDS011;36256;42.154;23.002;2022-10-29T05:14:14;7.43;;;5.50;;
36629;SDS011;36256;42.154;23.002;2022-10-29T05:16:40;16.47;;;9.07;;
36629;SDS011;36256;42.154;23.002;2022-10-29T05:19:07;16.88;;;9.52;;
36629;SDS011;36256;42.154;23.002;2022-10-29T05:21:33;17.42;;;9.75;;
36629;SDS011;36256;42.154;23.002;2022-10-29T05:24:00;15.23;;;8.75;;
36629;SDS011;36256;42.154;23.002;2022-10-29T05:26:28;15.65;;;8.52;;
36629;SDS011;36256;42.154;23.002;2022-10-29T05:28:56;12.15;;;7.82;;
36629;SDS011;36256;42.154;23.002;2022-10-29T05:31:23;9.17;;;5.77;;
36629;SDS011;36256;42.154;23.002;2022-10-29T05:33:49;12.13;;;8.32;;
36629;SDS011;36256;42.154;23.002;2022-10-29T05:36:21;11.27;;;6.70;;
36629;SDS011;36256;42.154;23.002;2022-10-29T05:38:47;13.60;;;7.13;;
36629;SDS011;36256;42.154;23.002;2022-10-29T05:41:14;9.07;;;4.43;;
36629;SDS011;36256;42.154;23.002;2022-10-29T05:43:40;6.87;;;4.87;;
36629;SDS011;36256;42.154;23.002;2022-10-29T05:46:07;9.47;;;5.33;;
36629;SDS011;36256;42.154;23.002;2022-10-29T05:48:33;7.87;;;5.37;;
36629;SDS011;36256;42.154;23.002;2022-10-29T05:51:00;7.93;;;5.22;;
36629;SDS011;36256;42.154;23.002;2022-10-29T05:53:26;9.75;;;5.47;;
36629;SDS011;36256;42.154;23.002;2022-10-29T05:55:53;11.00;;;6.30;;
36629;SDS011;36256;42.154;23.002;2022-10-29T05:58:19;7.55;;;5.40;;
36629;SDS011;36256;42.154;23.002;2022-10-29T06:00:46;9.57;;;5.37;;
36629;SDS011;36256;42.154;23.002;2022-10-29T06:03:14;7.43;;;5.03;;
36629;SDS011;36256;42.154;23.002;2022-10-29T06:05:41;8.43;;;5.30;;
36629;SDS011;36256;42.154;23.002;2022-10-29T06:08:07;11.50;;;5.25;;
36629;SDS011;36256;42.154;23.002;2022-10-29T06:10:34;7.03;;;4.50;;
36629;SDS011;36256;42.154;23.002;2022-10-29T06:13:01;7.18;;;4.40;;
36629;SDS011;36256;42.154;23.002;2022-10-29T06:15:28;9.07;;;4.77;;
36629;SDS011;36256;42.154;23.002;2022-10-29T06:17:54;7.73;;;4.27;;
36629;SDS011;36256;42.154;23.002;2022-10-29T06:20:21;5.50;;;4.07;;
36629;SDS011;36256;42.154;23.002;2022-10-29T06:22:54;7.23;;;4.80;;
36629;SDS011;36256;42.154;23.002;2022-10-29T06:25:24;10.57;;;5.80;;
36629;SDS011;36256;42.154;23.002;2022-10-29T06:28:01;16.10;;;9.23;;
36629;SDS011;36256;42.154;23.002;2022-10-29T06:30:35;13.52;;;9.05;;
36629;SDS011;36256;42.154;23.002;2022-10-29T06:33:02;17.27;;;10.47;;
36629;SDS011;36256;42.154;23.002;2022-10-29T06:35:30;13.48;;;8.27;;
36629;SDS011;36256;42.154;23.002;2022-10-29T06:37:57;13.10;;;8.25;;
36629;SDS011;36256;42.154;23.002;2022-10-29T06:40:24;12.65;;;7.43;;
36629;SDS011;36256;42.154;23.002;2022-10-29T06:43:01;18.02;;;8.45;;
36629;SDS011;36256;42.154;23.002;2022-10-29T06:45:29;37.95;;;13.43;;
36629;SDS011;36256;42.154;23.002;2022-10-29T06:47:57;30.58;;;11.75;;
36629;SDS011;36256;42.154;23.002;2022-10-29T06:50:24;20.13;;;8.77;;
36629;SDS011;36256;42.154;23.002;2022-10-29T06:53:03;17.55;;;8.75;;
36629;SDS011;36256;42.154;23.002;2022-10-29T06:55:32;15.85;;;7.10;;
36629;SDS011;36256;42.154;23.002;2022-10-29T06:58:00;15.98;;;7.68;;
36629;SDS011;36256;42.154;23.002;2022-10-29T07:00:36;14.48;;;7.03;;
36629;SDS011;36256;42.154;23.002;2022-10-29T07:03:03;13.52;;;6.65;;
36629;SDS011;36256;42.154;23.002;2022-10-29T07:05:30;9.93;;;7.00;;
36629;SDS011;36256;42.154;23.002;2022-10-29T07:07:58;14.18;;;7.38;;
36629;SDS011;36256;42.154;23.002;2022-10-29T07:10:27;11.48;;;6.75;;
36629;SDS011;36256;42.154;23.002;2022-10-29T07:12:54;12.80;;;6.45;;
36629;SDS011;36256;42.154;23.002;2022-10-29T07:15:21;16.10;;;8.43;;
36629;SDS011;36256;42.154;23.002;2022-10-29T07:18:00;11.75;;;6.55;;
36629;SDS011;36256;42.154;23.002;2022-10-29T07:20:29;18.92;;;11.43;;
36629;SDS011;36256;42.154;23.002;2022-10-29T07:22:57;23.30;;;9.55;;
36629;SDS011;36256;42.154;23.002;2022-10-29T07:25:26;11.30;;;6.25;;
36629;SDS011;36256;42.154;23.002;2022-10-29T07:27:54;19.20;;;9.73;;
36629;SDS011;36256;42.154;23.002;2022-10-29T07:30:21;15.40;;;8.93;;
36629;SDS011;36256;42.154;23.002;2022-10-29T07:32:47;11.27;;;6.80;;
36629;SDS011;36256;42.154;23.002;2022-10-29T07:35:14;13.37;;;7.00;;
36629;SDS011;36256;42.154;23.002;2022-10-29T07:37:40;11.00;;;5.87;;
36629;SDS011;36256;42.154;23.002;2022-10-29T07:40:07;12.57;;;6.23;;
36629;SDS011;36256;42.154;23.002;2022-10-29T07:42:34;10.73;;;6.28;;
36629;SDS011;36256;42.154;23.002;2022-10-29T07:45:01;10.83;;;6.20;;
36629;SDS011;36256;42.154;23.002;2022-10-29T07:47:27;11.90;;;6.57;;
36629;SDS011;36256;42.154;23.002;2022-10-29T07:49:54;10.70;;;5.60;;
36629;SDS011;36256;42.154;23.002;2022-10-29T07:52:20;22.63;;;6.33;;
36629;SDS011;36256;42.154;23.002;2022-10-29T07:54:47;15.87;;;10.37;;
36629;SDS011;36256;42.154;23.002;2022-10-29T07:57:13;14.83;;;8.37;;
36629;SDS011;36256;42.154;23.002;2022-10-29T07:59:41;18.23;;;7.95;;
36629;SDS011;36256;42.154;23.002;2022-10-29T08:02:08;16.95;;;7.70;;
36629;SDS011;36256;42.154;23.002;2022-10-29T08:04:36;15.85;;;7.40;;
36629;SDS011;36256;42.154;23.002;2022-10-29T08:07:02;7.53;;;4.47;;
36629;SDS011;36256;42.154;23.002;2022-10-29T08:09:29;13.23;;;6.32;;
36629;SDS011;36256;42.154;23.002;2022-10-29T08:11:55;10.30;;;5.38;;
36629;SDS011;36256;42.154;23.002;2022-10-29T08:14:22;12.87;;;5.50;;
36629;SDS011;36256;42.154;23.002;2022-10-29T08:16:48;10.93;;;5.63;;
36629;SDS011;36256;42.154;23.002;2022-10-29T08:19:15;14.70;;;9.57;;
36629;SDS011;36256;42.154;23.002;2022-10-29T08:21:41;10.23;;;5.80;;
36629;SDS011;36256;42.154;23.002;2022-10-29T08:24:08;11.38;;;5.18;;
36629;SDS011;36256;42.154;23.002;2022-10-29T08:26:35;10.63;;;4.70;;
36629;SDS011;36256;42.154;23.002;2022-10-29T08:29:02;10.60;;;4.65;;
36629;SDS011;36256;42.154;23.002;2022-10-29T08:31:29;14.30;;;4.80;;
36629;SDS011;36256;42.154;23.002;2022-10-29T08:33:56;7.47;;;4.45;;
36629;SDS011;36256;42.154;23.002;2022-10-29T08:36:22;8.88;;;5.13;;
36629;SDS011;36256;42.154;23.002;2022-10-29T08:38:49;9.95;;;4.97;;
36629;SDS011;36256;42.154;23.002;2022-10-29T08:41:29;9.52;;;4.72;;
36629;SDS011;36256;42.154;23.002;2022-10-29T08:44:09;8.70;;;4.28;;
36629;SDS011;36256;42.154;23.002;2022-10-29T08:49:34;9.85;;;4.00;;
36629;SDS011;36256;42.154;23.002;2022-10-29T08:52:09;17.52;;;4.55;;
36629;SDS011;36256;42.154;23.002;2022-10-29T08:54:42;6.85;;;3.85;;
36629;SDS011;36256;42.154;23.002;2022-10-29T08:57:15;8.73;;;4.25;;
36629;SDS011;36256;42.154;23.002;2022-10-29T09:00:06;10.23;;;4.32;;
36629;SDS011;36256;42.154;23.002;2022-10-29T09:02:40;11.43;;;4.63;;
36629;SDS011;36256;42.154;23.002;2022-10-29T09:24:32;10.20;;;3.70;;
36629;SDS011;36256;42.154;23.002;2022-10-29T09:27:04;10.18;;;3.78;;
36629;SDS011;36256;42.154;23.002;2022-10-29T09:32:13;9.13;;;3.78;;
36629;SDS011;36256;42.154;23.002;2022-10-29T09:34:46;12.20;;;4.28;;
36629;SDS011;36256;42.154;23.002;2022-10-29T09:37:23;9.45;;;4.40;;
36629;SDS011;36256;42.154;23.002;2022-10-29T09:40:12;8.73;;;4.35;;
36629;SDS011;36256;42.154;23.002;2022-10-29T09:45:20;6.45;;;3.50;;
36629;SDS011;36256;42.154;23.002;2022-10-29T09:50:47;9.70;;;4.30;;
36629;SDS011;36256;42.154;23.002;2022-10-29T09:53:22;9.32;;;4.05;;
36629;SDS011;36256;42.154;23.002;2022-10-29T09:55:49;8.90;;;4.28;;
36629;SDS011;36256;42.154;23.002;2022-10-29T09:58:24;11.85;;;4.93;;
36629;SDS011;36256;42.154;23.002;2022-10-29T10:00:53;11.05;;;4.70;;
36629;SDS011;36256;42.154;23.002;2022-10-29T10:03:22;12.27;;;4.55;;
36629;SDS011;36256;42.154;23.002;2022-10-29T10:08:30;9.48;;;4.38;;
36629;SDS011;36256;42.154;23.002;2022-10-29T10:11:01;9.25;;;4.35;;
36629;SDS011;36256;42.154;23.002;2022-10-29T10:13:36;11.77;;;4.30;;
36629;SDS011;36256;42.154;23.002;2022-10-29T10:16:25;11.65;;;5.20;;
36629;SDS011;36256;42.154;23.002;2022-10-29T10:18:53;12.13;;;4.45;;
36629;SDS011;36256;42.154;23.002;2022-10-29T10:21:30;11.95;;;5.00;;
36629;SDS011;36256;42.154;23.002;2022-10-29T10:23:58;10.32;;;4.50;;
36629;SDS011;36256;42.154;23.002;2022-10-29T10:29:15;13.18;;;6.80;;
36629;SDS011;36256;42.154;23.002;2022-10-29T10:32:09;20.25;;;5.90;;
36629;SDS011;36256;42.154;23.002;2022-10-29T10:34:37;12.27;;;4.47;;
36629;SDS011;36256;42.154;23.002;2022-10-29T10:37:15;11.13;;;4.22;;
36629;SDS011;36256;42.154;23.002;2022-10-29T10:42:29;8.40;;;4.00;;
36629;SDS011;36256;42.154;23.002;2022-10-29T10:45:04;12.77;;;4.38;;
36629;SDS011;36256;42.154;23.002;2022-10-29T10:47:41;9.63;;;4.60;;
36629;SDS011;36256;42.154;23.002;2022-10-29T10:52:45;12.25;;;3.97;;
36629;SDS011;36256;42.154;23.002;2022-10-29T10:57:46;7.90;;;3.55;;
36629;SDS011;36256;42.154;23.002;2022-10-29T11:02:48;14.38;;;4.50;;
36629;SDS011;36256;42.154;23.002;2022-10-29T11:05:21;10.13;;;4.30;;
36629;SDS011;36256;42.154;23.002;2022-10-29T11:07:58;9.25;;;3.90;;
36629;SDS011;36256;42.154;23.002;2022-10-29T11:26:46;8.88;;;3.65;;
36629;SDS011;36256;42.154;23.002;2022-10-29T11:29:29;7.13;;;3.40;;
36629;SDS011;36256;42.154;23.002;2022-10-29T11:34:40;5.38;;;3.63;;
36629;SDS011;36256;42.154;23.002;2022-10-29T11:37:17;9.23;;;4.78;;
36629;SDS011;36256;42.154;23.002;2022-10-29T11:42:27;7.85;;;4.22;;
36629;SDS011;36256;42.154;23.002;2022-10-29T11:44:55;10.00;;;4.43;;
36629;SDS011;36256;42.154;23.002;2022-10-29T11:50:03;7.85;;;4.00;;
36629;SDS011;36256;42.154;23.002;2022-10-29T11:57:58;9.52;;;3.05;;
36629;SDS011;36256;42.154;23.002;2022-10-29T12:00:45;7.50;;;3.05;;
36629;SDS011;36256;42.154;23.002;2022-10-29T12:05:41;4.85;;;3.00;;
36629;SDS011;36256;42.154;23.002;2022-10-29T12:30:24;6.20;;;2.72;;
36629;SDS011;36256;42.154;23.002;2022-10-29T12:35:32;5.10;;;2.58;;
36629;SDS011;36256;42.154;23.002;2022-10-29T12:40:32;6.18;;;2.72;;
36629;SDS011;36256;42.154;23.002;2022-10-29T12:43:03;4.20;;;2.47;;
36629;SDS011;36256;42.154;23.002;2022-10-29T12:45:35;7.25;;;2.97;;
36629;SDS011;36256;42.154;23.002;2022-10-29T12:56:34;9.65;;;3.42;;
36629;SDS011;36256;42.154;23.002;2022-10-29T13:01:49;4.78;;;2.45;;
36629;SDS011;36256;42.154;23.002;2022-10-29T13:04:36;6.18;;;2.50;;
36629;SDS011;36256;42.154;23.002;2022-10-29T13:07:03;4.40;;;2.45;;
36629;SDS011;36256;42.154;23.002;2022-10-29T13:09:48;6.78;;;2.75;;
36629;SDS011;36256;42.154;23.002;2022-10-29T13:12:52;8.00;;;2.55;;
36629;SDS011;36256;42.154;23.002;2022-10-29T13:15:26;6.88;;;2.85;;
36629;SDS011;36256;42.154;23.002;2022-10-29T13:17:53;6.68;;;2.88;;
36629;SDS011;36256;42.154;23.002;2022-10-29T13:20:26;5.85;;;2.53;;
36629;SDS011;36256;42.154;23.002;2022-10-29T13:23:00;6.68;;;3.05;;
36629;SDS011;36256;42.154;23.002;2022-10-29T13:27:58;8.82;;;3.25;;
36629;SDS011;36256;42.154;23.002;2022-10-29T13:30:31;5.45;;;2.90;;
36629;SDS011;36256;42.154;23.002;2022-10-29T13:32:58;13.25;;;3.22;;
36629;SDS011;36256;42.154;23.002;2022-10-29T13:37:56;10.23;;;3.08;;
36629;SDS011;36256;42.154;23.002;2022-10-29T13:40:38;7.68;;;2.97;;
36629;SDS011;36256;42.154;23.002;2022-10-29T13:43:13;14.20;;;3.17;;
36629;SDS011;36256;42.154;23.002;2022-10-29T13:46:05;17.73;;;3.47;;
36629;SDS011;36256;42.154;23.002;2022-10-29T13:48:39;6.73;;;3.23;;
36629;SDS011;36256;42.154;23.002;2022-10-29T13:51:08;7.65;;;4.05;;
36629;SDS011;36256;42.154;23.002;2022-10-29T13:53:57;15.77;;;8.82;;
36629;SDS011;36256;42.154;23.002;2022-10-29T13:56:38;12.73;;;6.75;;
36629;SDS011;36256;42.154;23.002;2022-10-29T13:59:13;23.00;;;5.45;;
36629;SDS011;36256;42.154;23.002;2022-10-29T14:01:51;10.68;;;4.50;;
36629;SDS011;36256;42.154;23.002;2022-10-29T14:04:34;13.18;;;3.45;;
36629;SDS011;36256;42.154;23.002;2022-10-29T14:07:04;15.85;;;5.60;;
36629;SDS011;36256;42.154;23.002;2022-10-29T14:09:43;15.73;;;5.55;;
36629;SDS011;36256;42.154;23.002;2022-10-29T14:12:16;14.98;;;6.82;;
36629;SDS011;36256;42.154;23.002;2022-10-29T14:17:35;25.25;;;4.80;;
36629;SDS011;36256;42.154;23.002;2022-10-29T14:20:02;9.48;;;4.03;;
36629;SDS011;36256;42.154;23.002;2022-10-29T14:22:35;6.78;;;4.25;;
36629;SDS011;36256;42.154;23.002;2022-10-29T14:30:36;5.93;;;3.75;;
36629;SDS011;36256;42.154;23.002;2022-10-29T14:33:15;7.10;;;4.05;;
36629;SDS011;36256;42.154;23.002;2022-10-29T14:35:43;11.02;;;4.10;;
36629;SDS011;36256;42.154;23.002;2022-10-29T14:38:11;11.27;;;3.58;;
36629;SDS011;36256;42.154;23.002;2022-10-29T14:40:39;10.30;;;3.05;;
36629;SDS011;36256;42.154;23.002;2022-10-29T14:43:11;9.70;;;3.17;;
36629;SDS011;36256;42.154;23.002;2022-10-29T14:45:54;8.30;;;2.75;;
36629;SDS011;36256;42.154;23.002;2022-10-29T14:48:33;8.50;;;3.03;;
36629;SDS011;36256;42.154;23.002;2022-10-29T14:51:01;12.57;;;2.42;;
36629;SDS011;36256;42.154;23.002;2022-10-29T14:53:29;18.20;;;3.72;;
36629;SDS011;36256;42.154;23.002;2022-10-29T14:55:58;6.88;;;3.17;;
36629;SDS011;36256;42.154;23.002;2022-10-29T14:58:28;9.55;;;4.20;;
36629;SDS011;36256;42.154;23.002;2022-10-29T15:01:02;9.40;;;3.78;;
36629;SDS011;36256;42.154;23.002;2022-10-29T15:03:34;8.48;;;3.33;;
36629;SDS011;36256;42.154;23.002;2022-10-29T15:06:12;6.75;;;3.38;;
36629;SDS011;36256;42.154;23.002;2022-10-29T15:08:42;7.50;;;3.22;;
36629;SDS011;36256;42.154;23.002;2022-10-29T15:11:30;12.88;;;3.70;;
36629;SDS011;36256;42.154;23.002;2022-10-29T15:13:58;8.93;;;3.40;;
36629;SDS011;36256;42.154;23.002;2022-10-29T15:16:26;31.15;;;4.28;;
36629;SDS011;36256;42.154;23.002;2022-10-29T15:18:53;29.77;;;3.95;;
36629;SDS011;36256;42.154;23.002;2022-10-29T15:21:28;12.05;;;4.38;;
36629;SDS011;36256;42.154;23.002;2022-10-29T15:24:07;14.85;;;4.15;;
36629;SDS011;36256;42.154;23.002;2022-10-29T15:26:46;9.20;;;3.17;;
36629;SDS011;36256;42.154;23.002;2022-10-29T15:29:22;10.25;;;2.78;;
36629;SDS011;36256;42.154;23.002;2022-10-29T15:31:59;1.95;;;1.10;;
36629;SDS011;36256;42.154;23.002;2022-10-29T15:34:34;3.50;;;1.92;;
36629;SDS011;36256;42.154;23.002;2022-10-29T15:42:26;5.45;;;1.70;;
36629;SDS011;36256;42.154;23.002;2022-10-29T15:47:33;8.07;;;1.70;;
36629;SDS011;36256;42.154;23.002;2022-10-29T15:50:11;4.40;;;1.42;;
36629;SDS011;36256;42.154;23.002;2022-10-29T15:52:40;3.22;;;1.13;;
36629;SDS011;36256;42.154;23.002;2022-10-29T15:57:52;2.08;;;1.50;;
36629;SDS011;36256;42.154;23.002;2022-10-29T16:00:22;3.92;;;1.45;;
36629;SDS011;36256;42.154;23.002;2022-10-29T16:07:43;9.80;;;1.70;;
36629;SDS011;36256;42.154;23.002;2022-10-29T16:10:20;4.15;;;1.50;;
36629;SDS011;36256;42.154;23.002;2022-10-29T16:12:47;3.70;;;1.45;;
36629;SDS011;36256;42.154;23.002;2022-10-29T16:15:16;7.85;;;1.52;;
36629;SDS011;36256;42.154;23.002;2022-10-29T16:17:45;5.57;;;1.85;;
36629;SDS011;36256;42.154;23.002;2022-10-29T16:20:13;7.47;;;1.80;;
36629;SDS011;36256;42.154;23.002;2022-10-29T16:22:41;8.63;;;4.93;;
36629;SDS011;36256;42.154;23.002;2022-10-29T16:25:16;16.48;;;6.05;;
36629;SDS011;36256;42.154;23.002;2022-10-29T16:27:46;31.70;;;12.93;;
36629;SDS011;36256;42.154;23.002;2022-10-29T16:30:13;12.37;;;4.77;;
36629;SDS011;36256;42.154;23.002;2022-10-29T16:32:40;21.45;;;8.60;;
36629;SDS011;36256;42.154;23.002;2022-10-29T16:35:11;14.57;;;5.97;;
36629;SDS011;36256;42.154;23.002;2022-10-29T16:37:44;5.13;;;2.50;;
36629;SDS011;36256;42.154;23.002;2022-10-29T16:40:11;6.80;;;2.20;;
36629;SDS011;36256;42.154;23.002;2022-10-29T16:42:38;12.25;;;2.22;;
36629;SDS011;36256;42.154;23.002;2022-10-29T16:45:06;5.72;;;2.38;;
36629;SDS011;36256;42.154;23.002;2022-10-29T16:47:35;6.15;;;2.60;;
36629;SDS011;36256;42.154;23.002;2022-10-29T16:50:02;7.13;;;3.00;;
36629;SDS011;36256;42.154;23.002;2022-10-29T16:52:29;7.32;;;2.20;;
36629;SDS011;36256;42.154;23.002;2022-10-29T16:54:58;8.13;;;3.80;;
36629;SDS011;36256;42.154;23.002;2022-10-29T16:57:24;9.57;;;3.80;;
36629;SDS011;36256;42.154;23.002;2022-10-29T16:59:51;7.95;;;4.38;;
36629;SDS011;36256;42.154;23.002;2022-10-29T17:02:18;9.60;;;4.90;;
36629;SDS011;36256;42.154;23.002;2022-10-29T17:04:45;9.27;;;3.30;;
36629;SDS011;36256;42.154;23.002;2022-10-29T17:07:11;8.37;;;2.60;;
36629;SDS011;36256;42.154;23.002;2022-10-29T17:09:38;8.80;;;2.60;;
36629;SDS011;36256;42.154;23.002;2022-10-29T17:12:05;4.63;;;1.90;;
36629;SDS011;36256;42.154;23.002;2022-10-29T17:14:32;5.68;;;2.22;;
36629;SDS011;36256;42.154;23.002;2022-10-29T17:16:58;7.13;;;2.70;;
36629;SDS011;36256;42.154;23.002;2022-10-29T17:19:27;8.38;;;2.65;;
36629;SDS011;36256;42.154;23.002;2022-10-29T17:21:54;8.70;;;3.00;;
36629;SDS011;36256;42.154;23.002;2022-10-29T17:24:24;6.22;;;2.55;;
36629;SDS011;36256;42.154;23.002;2022-10-29T17:26:52;5.57;;;2.80;;
36629;SDS011;36256;42.154;23.002;2022-10-29T17:29:19;8.30;;;2.50;;
36629;SDS011;36256;42.154;23.002;2022-10-29T17:34:13;9.35;;;2.47;;
36629;SDS011;36256;42.154;23.002;2022-10-29T17:36:39;5.93;;;2.37;;
36629;SDS011;36256;42.154;23.002;2022-10-29T17:39:08;6.28;;;2.20;;
36629;SDS011;36256;42.154;23.002;2022-10-29T17:41:36;8.90;;;2.35;;
36629;SDS011;36256;42.154;23.002;2022-10-29T17:44:02;6.80;;;2.50;;
36629;SDS011;36256;42.154;23.002;2022-10-29T17:46:29;6.97;;;2.38;;
36629;SDS011;36256;42.154;23.002;2022-10-29T17:48:55;6.67;;;2.40;;
36629;SDS011;36256;42.154;23.002;2022-10-29T17:51:22;13.02;;;2.50;;